EDT,Max TemperatureF,Mean TemperatureF,Min TemperatureF,Max Dew PointF,MeanDew PointF,Min DewpointF,Max Humidity, Mean Humidity, Min Humidity, Max Sea Level PressureIn, Mean Sea Level PressureIn, Min Sea Level PressureIn, Max VisibilityMiles, Mean VisibilityMiles, Min VisibilityMiles, Max Wind SpeedMPH, Mean Wind SpeedMPH, Max Gust SpeedMPH,PrecipitationIn, CloudCover, Events, WindDirDegrees
2013-5-1,70,60,49,54,46,37,96,64,34,30.47,30.39,30.31,10,10,10,14,5,22,0.01,3,,58
2013-5-2,67,54,40,52,48,41,100,80,54,30.48,30.43,30.36,10,10,5,10,4,16,0.00,2,,56
2013-5-3,69,54,40,52,45,40,100,72,36,30.41,30.37,30.33,10,9,3,17,5,23,0.00,1,,74
2013-5-4,66,52,39,48,44,38,100,69,45,30.37,30.29,30.22,10,10,7,14,6,21,0.00,2,,72
2013-5-5,63,54,46,49,44,37,89,68,51,30.28,30.23,30.19,10,10,10,14,7,18,0.00,4,,62
2013-5-6,63,58,52,61,55,49,98,91,85,30.21,30.14,30.06,10,7,2,15,7,20,0.01,8,Rain,55
2013-5-7,68,62,57,65,61,57,100,96,83,30.07,30.00,29.92,10,7,3,17,9,26,1.36,8,Rain-Thunderstorm,70
2013-5-8,70,62,54,61,58,54,100,92,60,30.05,30.01,29.98,10,6,0,8,2,18,1.18,7,Fog-Rain-Thunderstorm,95
2013-5-9,77,64,52,64,58,52,100,83,53,30.06,30.02,29.98,10,7,0,9,2,,0.01,5,Fog,257
2013-5-10,85,68,51,64,57,51,100,68,35,30.06,30.00,29.91,10,8,2,14,3,25,0.09,1,Rain,205
2013-5-11,79,71,63,67,64,60,100,82,54,29.96,29.84,29.76,10,9,2,12,4,18,0.09,5,Rain-Thunderstorm,212
2013-5-12,67,57,45,64,45,30,100,60,29,30.09,29.91,29.80,10,10,3,21,6,25,0.08,3,Rain,319
2013-5-13,62,48,34,42,34,28,99,61,28,30.22,30.13,30.08,10,10,10,18,5,25,0.00,2,,298
2013-5-14,67,49,31,45,36,32,100,61,30,30.27,30.19,30.08,10,10,7,9,2,17,0.00,2,,264
2013-5-15,86,66,47,63,55,44,98,63,41,30.08,29.91,29.75,10,10,10,15,3,23,0.00,2,Rain,214
2013-5-16,86,73,60,65,61,57,93,66,41,29.98,29.89,29.82,10,10,10,9,3,,0.00,1,,254
2013-5-17,83,70,57,62,57,51,100,65,33,30.18,30.09,29.96,10,10,4,8,3,,0.00,2,,93
2013-5-18,70,65,60,63,59,50,100,88,52,30.28,30.23,30.18,10,8,2,10,4,,0.09,8,Rain,92
2013-5-19,75,68,60,68,65,60,100,93,77,30.24,30.19,30.13,10,6,2,6,0,,0.06,8,Rain,95
2013-5-20,84,74,64,70,68,64,100,84,58,30.16,30.09,30.03,10,8,1,8,1,,0.01,4,,199
2013-5-21,82,75,68,71,69,67,98,84,65,30.05,30.01,29.94,10,9,7,10,4,,0.00,4,,194
2013-5-22,87,78,70,72,70,66,98,78,56,30.00,29.94,29.88,10,8,5,10,4,,0.01,3,Rain,192
2013-5-23,82,72,63,72,68,61,99,82,60,29.95,29.90,29.80,10,10,4,14,4,23,0.11,5,Rain-Thunderstorm,189
2013-5-24,63,56,48,63,49,33,100,73,44,30.22,30.00,29.82,10,9,2,25,8,38,0.01,5,Rain,323
2013-5-25,68,55,42,40,35,32,75,49,29,30.27,30.21,30.15,10,10,10,20,11,29,0.00,0,,301
2013-5-26,74,58,41,49,39,33,93,56,22,30.29,30.23,30.17,10,10,10,14,3,20,0.00,0,,297
2013-5-27,73,57,41,57,48,41,99,70,33,30.33,30.28,30.23,10,10,10,9,1,,0.00,2,,296
2013-5-28,86,68,51,69,61,51,100,80,48,30.25,30.17,30.11,10,9,2,12,2,16,0.04,2,Rain-Thunderstorm,204
2013-5-29,91,78,66,70,66,64,98,69,41,30.19,30.15,30.13,10,10,7,10,2,16,0.01,0,,206
2013-5-30,91,78,66,70,66,64,89,65,42,30.24,30.20,30.17,10,10,10,8,2,,0.00,0,,191
2013-5-31,91,76,61,67,64,60,99,62,35,30.21,30.16,30.09,10,10,5,14,3,21,0.00,0,,207